| time (UTC) | temp F | wind direction | speed knots | gust knots | rain 1hr in | rain 24hr in | rain mn in | humidity % | barometer mb |
| 20260503054459 | 50 | 0 | 0.0 | 0.0 | 0.00 | 0.09 | 0.09 | 83 | 1015.1 |
| 20260503054445 | 50 | 0 | 0.0 | 0.0 | 0.00 | 0.09 | 0.09 | 83 | 1015.0 |
| 20260503053945 | 50 | 0 | 0.0 | 0.0 | 0.00 | 0.09 | 0.09 | 84 | 1015.0 |
| 20260503052946 | 50 | 264 | 0.0 | 0.0 | 0.00 | 0.09 | 0.09 | 84 | 1015.0 |
| 20260503052445 | 50 | 303 | 0.0 | 0.0 | 0.00 | 0.09 | 0.09 | 84 | 1014.9 |
| 20260503051944 | 50 | 257 | 0.0 | 0.0 | 0.00 | 0.09 | 0.09 | 84 | 1015.1 |
| 20260503051456 | 50 | 254 | 0.0 | 0.0 | 0.00 | 0.09 | 0.09 | 84 | 1015.4 |
| 20260503051444 | 50 | 254 | 0.0 | 0.0 | 0.00 | 0.09 | 0.09 | 84 | 1015.1 |
| 20260503050443 | 50 | 254 | 0.0 | 0.0 | 0.00 | 0.09 | 0.09 | 84 | 1015.6 |
| 20260503045942 | 50 | 255 | 0.0 | 0.0 | 0.00 | 0.09 | 0.09 | 84 | 1015.6 |
| 20260503045443 | 50 | 258 | 0.0 | 0.0 | 0.00 | 0.09 | 0.09 | 84 | 1015.6 |
| 20260503044943 | 50 | 258 | 0.0 | 0.0 | 0.00 | 0.09 | 0.09 | 83 | 1015.5 |
| 20260503044444 | 50 | 259 | 0.0 | 0.0 | 0.00 | 0.09 | 0.09 | 83 | 1015.4 |
| 20260503043944 | 51 | 320 | 0.0 | 0.0 | 0.00 | 0.09 | 0.09 | 83 | 1015.2 |
| 20260503043444 | 51 | 320 | 0.0 | 0.0 | 0.00 | 0.09 | 0.09 | 83 | 1015.4 |
| 20260503042956 | 51 | 0 | 0.0 | 0.0 | 0.00 | 0.09 | 0.09 | 83 | 1015.5 |
| 20260503042944 | 51 | 320 | 0.0 | 0.0 | 0.00 | 0.09 | 0.09 | 83 | 1015.4 |
| 20260503042443 | 51 | 0 | 0.0 | 0.0 | 0.00 | 0.09 | 0.09 | 83 | 1015.5 |
| 20260503041445 | 51 | 0 | 0.0 | 0.0 | 0.00 | 0.09 | 0.09 | 82 | 1015.5 |
| 20260503040943 | 51 | 0 | 0.0 | 0.0 | 0.00 | 0.09 | 0.09 | 82 | 1015.4 |
| 20260503040451 | 51 | 0 | 0.0 | 0.0 | 0.00 | 0.09 | 0.09 | 81 | 1015.2 |
| 20260503040441 | 51 | 0 | 0.0 | 0.0 | 0.00 | 0.09 | 0.09 | 82 | 1015.4 |
| 20260503035442 | 51 | 0 | 0.0 | 0.0 | 0.00 | 0.09 | 0.09 | 81 | 1015.2 |
| 20260503034942 | 51 | 0 | 0.0 | 0.0 | 0.00 | 0.09 | 0.09 | 81 | 1015.0 |
| 20260503034441 | 51 | 0 | 0.0 | 0.0 | 0.00 | 0.09 | 0.09 | 80 | 1014.9 |
| 20260503033954 | 51 | 0 | 0.0 | 0.0 | 0.01 | 0.09 | 0.09 | 79 | 1014.5 |
| 20260503033942 | 51 | 0 | 0.0 | 0.0 | 0.00 | 0.09 | 0.09 | 80 | 1014.9 |
| 20260503032941 | 52 | 0 | 0.0 | 0.0 | 0.01 | 0.09 | 0.09 | 79 | 1014.4 |
| 20260503032443 | 52 | 0 | 0.0 | 0.0 | 0.01 | 0.09 | 0.09 | 79 | 1014.3 |
| 20260503031944 | 52 | 0 | 0.0 | 4.3 | 0.01 | 0.09 | 0.09 | 79 | 1014.4 |
| 20260503031441 | 52 | 120 | 0.0 | 4.3 | 0.01 | 0.09 | 0.09 | 79 | 1014.4 |
| 20260503030941 | 52 | 228 | 0.0 | 0.0 | 0.01 | 0.09 | 0.09 | 79 | 1014.2 |
| 20260503030442 | 52 | 227 | 0.0 | 2.6 | 0.01 | 0.09 | 0.09 | 79 | 1013.8 |
| 20260503025942 | 52 | 0 | 0.0 | 2.6 | 0.01 | 0.09 | 0.09 | 79 | 1014.0 |
| 20260503025442 | 52 | 303 | 0.0 | 0.0 | 0.01 | 0.09 | 0.09 | 80 | 1013.8 |
| 20260503024953 | 53 | 354 | 0.0 | 0.0 | 0.01 | 0.09 | 0.09 | 79 | 1014.2 |
| 20260503024940 | 53 | 300 | 0.0 | 0.0 | 0.01 | 0.09 | 0.09 | 79 | 1014.1 |
| 20260503023941 | 53 | 309 | 0.0 | 0.0 | 0.01 | 0.09 | 0.09 | 80 | 1014.5 |
| 20260503023439 | 53 | 252 | 0.0 | 0.0 | 0.00 | 0.08 | 0.09 | 79 | 1015.0 |
| 20260503022943 | 53 | 250 | 0.0 | 0.0 | 0.00 | 0.08 | 0.08 | 80 | 1015.0 |
| 20260503022439 | 53 | 0 | 0.0 | 0.0 | 0.00 | 0.08 | 0.08 | 79 | 1014.9 |
| 20260503021942 | 53 | 317 | 0.0 | 0.0 | 0.00 | 0.08 | 0.08 | 78 | 1014.7 |
| 20260503021441 | 53 | 323 | 0.0 | 0.0 | 0.02 | 0.08 | 0.08 | 78 | 1014.5 |
| 20260503020955 | 54 | 0 | 0.0 | 0.0 | 0.03 | 0.08 | 0.08 | 78 | 1014.3 |
| 20260503020941 | 53 | 0 | 0.0 | 1.7 | 0.03 | 0.08 | 0.08 | 77 | 1014.7 |
| 20260503020441 | 53 | 0 | 0.0 | 1.7 | 0.03 | 0.08 | 0.08 | 77 | 1014.5 |
| 20260503015941 | 54 | 0 | 0.0 | 0.0 | 0.03 | 0.08 | 0.08 | 78 | 1014.4 |
| 20260503015612 | 54 | 0 | 0.0 | 1.7 | 0.03 | 0.08 | 0.08 | 77 | 1014.3 |
| 20260503014440 | 54 | 0 | 0.0 | 1.7 | 0.03 | 0.08 | 0.08 | 77 | 1014.5 |
| 20260503013939 | 54 | 0 | 0.0 | 0.0 | 0.03 | 0.08 | 0.08 | 78 | 1014.5 |
| 20260503013439 | 54 | 0 | 0.0 | 0.0 | 0.03 | 0.08 | 0.08 | 78 | 1014.7 |
| 20260503012938 | 54 | 0 | 0.0 | 0.9 | 0.05 | 0.08 | 0.08 | 78 | 1014.8 |
| 20260503012439 | 54 | 0 | 0.0 | 3.5 | 0.08 | 0.08 | 0.08 | 76 | 1014.8 |
| 20260503011940 | 55 | 0 | 0.0 | 3.5 | 0.08 | 0.08 | 0.08 | 75 | 1015.0 |
| 20260503011448 | 56 | 147 | 0.0 | 0.0 | 0.05 | 0.05 | 0.05 | 71 | 1015.1 |
| 20260503011437 | 55 | 41 | 0.0 | 0.9 | 0.06 | 0.06 | 0.06 | 74 | 1015.1 |
| 20260503011050 | 56 | 147 | 0.0 | 0.0 | 0.05 | 0.05 | 0.05 | 71 | 1015.0 |
| 20260503005938 | 56 | 61 | 0.0 | 0.0 | 0.05 | 0.05 | 0.05 | 70 | 1014.9 |
| 20260503005437 | 57 | 45 | 0.0 | 0.0 | 0.05 | 0.05 | 0.05 | 70 | 1014.7 |
| 20260503004937 | 58 | 313 | 0.0 | 0.0 | 0.05 | 0.05 | 0.05 | 69 | 1014.2 |
| 20260503004437 | 58 | 305 | 0.0 | 0.0 | 0.05 | 0.05 | 0.05 | 67 | 1014.1 |
| 20260503003935 | 59 | 0 | 0.0 | 0.0 | 0.05 | 0.05 | 0.05 | 66 | 1014.0 |
| 20260503003437 | 60 | 0 | 0.0 | 0.0 | 0.05 | 0.05 | 0.05 | 61 | 1014.0 |
| 20260503002946 | 62 | 0 | 0.0 | 0.0 | 0.00 | 0.00 | 0.00 | 43 | 1014.0 |
| 20260503002935 | 61 | 0 | 0.0 | 0.0 | 0.03 | 0.03 | 0.04 | 58 | 1014.0 |
| 20260503002610 | 62 | 0 | 0.0 | 0.0 | 0.00 | 0.00 | 0.00 | 42 | 1013.7 |
| 20260503001436 | 62 | 0 | 0.0 | 0.0 | 0.00 | 0.00 | 0.00 | 42 | 1013.5 |
| 20260503000936 | 62 | 0 | 0.0 | 0.0 | 0.00 | 0.00 | 0.00 | 40 | 1013.1 |
| 20260503000437 | 62 | 0 | 0.0 | 0.0 | 0.00 | 0.00 | 0.00 | 40 | 1013.0 |
| 20260502235936 | 63 | 0 | 0.0 | 0.0 | 0.00 | 0.00 | 0.00 | 39 | 1012.7 |
| 20260502235436 | 63 | 0 | 0.0 | 0.0 | 0.00 | 0.00 | 0.00 | 39 | 1012.7 |
| 20260502234935 | 63 | 0 | 0.0 | 2.6 | 0.00 | 0.00 | 0.00 | 39 | 1012.6 |
| 20260502234436 | 63 | 0 | 0.0 | 2.6 | 0.00 | 0.00 | 0.00 | 39 | 1012.6 |
| 20260502233935 | 63 | 0 | 0.0 | 5.2 | 0.00 | 0.00 | 0.00 | 39 | 1012.8 |
| 20260502233446 | 64 | 0 | 1.7 | 9.6 | 0.00 | 0.00 | 0.00 | 38 | 1012.8 |
| 20260502233435 | 63 | 0 | 0.0 | 8.7 | 0.00 | 0.00 | 0.00 | 39 | 1012.8 |
| 20260502232437 | 64 | 0 | 3.5 | 9.6 | 0.00 | 0.00 | 0.00 | 38 | 1012.9 |
| 20260502231936 | 64 | 0 | 0.0 | 1.7 | 0.00 | 0.00 | 0.00 | 37 | 1012.9 |
| 20260502231433 | 64 | 0 | 0.0 | 5.2 | 0.00 | 0.00 | 0.00 | 38 | 1013.0 |
| 20260502230933 | 64 | 0 | 0.9 | 7.8 | 0.00 | 0.00 | 0.00 | 38 | 1013.0 |
| 20260502230434 | 64 | 0 | 0.9 | 7.8 | 0.00 | 0.00 | 0.00 | 37 | 1013.0 |
| 20260502225934 | 64 | 0 | 0.0 | 7.8 | 0.00 | 0.00 | 0.00 | 38 | 1013.1 |
| 20260502225433 | 63 | 0 | 0.0 | 9.6 | 0.00 | 0.00 | 0.00 | 38 | 1013.1 |
| 20260502224935 | 63 | 0 | 3.5 | 9.6 | 0.00 | 0.00 | 0.00 | 38 | 1013.1 |
| 20260502224436 | 63 | 0 | 0.9 | 8.7 | 0.00 | 0.00 | 0.00 | 39 | 1013.3 |
| 20260502223932 | 63 | 0 | 1.7 | 11.3 | 0.00 | 0.00 | 0.00 | 37 | 1013.5 |
| 20260502223432 | 64 | 0 | 0.9 | 11.3 | 0.00 | 0.00 | 0.00 | 39 | 1013.7 |
| 20260502222934 | 64 | 0 | 0.9 | 11.3 | 0.00 | 0.00 | 0.00 | 38 | 1013.7 |
| 20260502222433 | 65 | 0 | 0.9 | 11.3 | 0.00 | 0.00 | 0.00 | 38 | 1013.6 |
| 20260502221932 | 65 | 0 | 0.0 | 10.4 | 0.00 | 0.00 | 0.00 | 39 | 1013.6 |
| 20260502221434 | 66 | 0 | 0.0 | 0.9 | 0.00 | 0.00 | 0.00 | 38 | 1013.6 |
| 20260502220943 | 66 | 0 | 1.7 | 11.3 | 0.00 | 0.00 | 0.00 | 33 | 1013.4 |
| 20260502220933 | 66 | 0 | 0.0 | 11.3 | 0.00 | 0.00 | 0.00 | 35 | 1013.5 |
| 20260502215933 | 67 | 0 | 1.7 | 6.1 | 0.00 | 0.00 | 0.00 | 33 | 1013.5 |
| 20260502215432 | 67 | 0 | 0.0 | 0.0 | 0.00 | 0.00 | 0.00 | 33 | 1013.6 |
| 20260502214942 | 67 | 0 | 0.0 | 0.0 | 0.00 | 0.00 | 0.00 | 33 | 1013.7 |
| 20260502214932 | 67 | 0 | 0.0 | 0.0 | 0.00 | 0.00 | 0.00 | 33 | 1013.6 |
| 20260502213933 | 67 | 0 | 0.0 | 0.0 | 0.00 | 0.00 | 0.00 | 32 | 1013.8 |
| 20260502213432 | 67 | 0 | 0.0 | 0.0 | 0.00 | 0.00 | 0.00 | 33 | 1013.7 |
| 20260502212932 | 67 | 0 | 0.0 | 0.0 | 0.00 | 0.00 | 0.00 | 33 | 1013.8 |
| 20260502212443 | 67 | 0 | 0.0 | 7.8 | 0.00 | 0.00 | 0.00 | 32 | 1014.1 |
| 20260502212432 | 67 | 0 | 0.0 | 3.5 | 0.00 | 0.00 | 0.00 | 33 | 1013.8 |
| 20260502211432 | 67 | 0 | 0.9 | 8.7 | 0.00 | 0.00 | 0.00 | 32 | 1014.1 |
| 20260502210941 | 67 | 0 | 1.7 | 7.8 | 0.00 | 0.00 | 0.00 | 33 | 1014.1 |
| 20260502210932 | 67 | 0 | 2.6 | 8.7 | 0.00 | 0.00 | 0.00 | 33 | 1014.2 |
| 20260502205932 | 67 | 0 | 1.7 | 7.8 | 0.00 | 0.00 | 0.00 | 32 | 1014.2 |
| 20260502205431 | 67 | 0 | 1.7 | 7.8 | 0.00 | 0.00 | 0.00 | 31 | 1014.2 |
| 20260502204931 | 67 | 0 | 2.6 | 7.8 | 0.00 | 0.00 | 0.00 | 30 | 1014.3 |
| 20260502204443 | 68 | 0 | 0.9 | 15.6 | 0.00 | 0.00 | 0.00 | 29 | 1014.3 |
| 20260502204431 | 68 | 0 | 0.9 | 15.6 | 0.00 | 0.00 | 0.00 | 30 | 1014.3 |
| 20260502203430 | 68 | 0 | 4.3 | 13.0 | 0.00 | 0.00 | 0.00 | 26 | 1014.2 |
| 20260502202932 | 69 | 0 | 6.1 | 13.0 | 0.00 | 0.00 | 0.00 | 26 | 1014.1 |
| 20260502202430 | 69 | 0 | 0.0 | 4.3 | 0.00 | 0.00 | 0.00 | 27 | 1014.3 |
| 20260502201929 | 69 | 0 | 0.0 | 0.9 | 0.00 | 0.00 | 0.00 | 27 | 1014.2 |
| 20260502201429 | 70 | 0 | 0.0 | 1.7 | 0.00 | 0.00 | 0.00 | 27 | 1014.2 |
| 20260502200930 | 70 | 0 | 0.0 | 5.2 | 0.00 | 0.00 | 0.00 | 26 | 1014.2 |
| 20260502200429 | 70 | 0 | 0.9 | 5.2 | 0.00 | 0.00 | 0.00 | 27 | 1014.2 |
| 20260502195931 | 70 | 0 | 0.0 | 0.0 | 0.00 | 0.00 | 0.00 | 26 | 1014.3 |
| 20260502195429 | 70 | 0 | 0.0 | 4.3 | 0.00 | 0.00 | 0.00 | 27 | 1014.3 |
| 20260502194929 | 70 | 0 | 0.0 | 4.3 | 0.00 | 0.00 | 0.00 | 28 | 1014.3 |
| 20260502194430 | 70 | 0 | 0.0 | 0.0 | 0.00 | 0.00 | 0.00 | 27 | 1014.3 |
| 20260502193931 | 70 | 0 | 0.0 | 0.9 | 0.00 | 0.00 | 0.00 | 27 | 1014.4 |
| 20260502193441 | 70 | 0 | 0.0 | 6.1 | 0.00 | 0.00 | 0.00 | 27 | 1014.4 |
| 20260502193429 | 70 | 0 | 0.0 | 0.9 | 0.00 | 0.00 | 0.00 | 27 | 1014.4 |
| 20260502193057 | 70 | 0 | 0.0 | 6.1 | 0.00 | 0.00 | 0.00 | 27 | 1014.4 |
| 20260502191938 | 70 | 0 | 0.0 | 2.6 | 0.00 | 0.00 | 0.00 | 27 | 1014.5 |
| 20260502191927 | 70 | 0 | 0.0 | 2.6 | 0.00 | 0.00 | 0.00 | 26 | 1014.4 |
| 20260502190929 | 70 | 0 | 0.0 | 0.9 | 0.00 | 0.00 | 0.00 | 26 | 1014.4 |
| 20260502190428 | 70 | 0 | 0.0 | 0.0 | 0.00 | 0.00 | 0.00 | 25 | 1014.5 |
| 20260502185927 | 70 | 0 | 0.0 | 0.0 | 0.00 | 0.00 | 0.00 | 26 | 1014.5 |
| 20260502185427 | 70 | 0 | 0.0 | 0.0 | 0.00 | 0.00 | 0.00 | 26 | 1014.7 |
| 20260502184927 | 71 | 0 | 0.0 | 0.0 | 0.00 | 0.00 | 0.00 | 26 | 1014.5 |
| 20260502184427 | 71 | 0 | 0.0 | 0.0 | 0.00 | 0.00 | 0.00 | 25 | 1014.5 |
| 20260502183926 | 71 | 110 | 0.0 | 0.0 | 0.00 | 0.00 | 0.00 | 26 | 1014.7 |
| 20260502183426 | 70 | 131 | 0.0 | 0.0 | 0.00 | 0.00 | 0.00 | 27 | 1014.8 |
| 20260502182926 | 70 | 320 | 0.0 | 0.0 | 0.00 | 0.00 | 0.00 | 28 | 1014.8 |
| 20260502182440 | 69 | 0 | 0.0 | 0.0 | 0.00 | 0.00 | 0.00 | 28 | 1015.0 |
| 20260502182427 | 70 | 48 | 0.0 | 0.0 | 0.00 | 0.00 | 0.00 | 28 | 1014.9 |
| 20260502182057 | 69 | 0 | 0.0 | 0.0 | 0.00 | 0.00 | 0.00 | 29 | 1015.0 |
| 20260502180926 | 69 | 0 | 0.0 | 0.0 | 0.00 | 0.00 | 0.00 | 29 | 1014.9 |
| 20260502180436 | 68 | 0 | 0.0 | 0.0 | 0.00 | 0.00 | 0.00 | 30 | 1015.0 |
| 20260502180427 | 69 | 0 | 0.0 | 0.0 | 0.00 | 0.00 | 0.00 | 30 | 1014.9 |
| 20260502163923 | 64 | 0 | 0.0 | 0.0 | 0.00 | 0.00 | 0.00 | 35 | 1015.1 |
| 20260502163555 | 63 | 0 | 0.0 | 0.0 | 0.00 | 0.00 | 0.00 | 39 | 1015.0 |
| 20260502162423 | 62 | 0 | 0.0 | 0.0 | 0.00 | 0.00 | 0.00 | 41 | 1015.0 |
| 20260502161924 | 61 | 0 | 0.0 | 0.0 | 0.00 | 0.00 | 0.00 | 42 | 1015.0 |
| 20260502161424 | 61 | 0 | 0.0 | 0.0 | 0.00 | 0.00 | 0.00 | 43 | 1015.1 |
| 20260502160925 | 60 | 56 | 0.0 | 0.0 | 0.00 | 0.00 | 0.00 | 46 | 1015.1 |
| 20260502160422 | 59 | 52 | 0.0 | 0.0 | 0.00 | 0.00 | 0.00 | 44 | 1015.2 |
| 20260502151921 | 52 | 0 | 0.0 | 0.0 | 0.00 | 0.00 | 0.00 | 57 | 1015.2 |
| 20260502151421 | 51 | 0 | 0.0 | 0.0 | 0.00 | 0.00 | 0.00 | 60 | 1015.2 |
| 20260502150923 | 51 | 0 | 0.0 | 0.0 | 0.00 | 0.00 | 0.00 | 62 | 1015.1 |
| 20260502150422 | 49 | 0 | 0.0 | 0.0 | 0.00 | 0.00 | 0.00 | 65 | 1015.1 |
| 20260502130421 | 43 | 268 | 0.0 | 0.0 | 0.00 | 0.00 | 0.00 | 65 | 1014.3 |
| 20260502123416 | 42 | 269 | 0.0 | 0.0 | 0.00 | 0.00 | 0.00 | 64 | 1014.2 |
| 20260502122917 | 42 | 269 | 0.0 | 0.0 | 0.00 | 0.00 | 0.00 | 63 | 1014.2 |
| 20260502122420 | 42 | 269 | 0.0 | 0.0 | 0.00 | 0.00 | 0.00 | 63 | 1014.2 |
| 20260502121929 | 42 | 269 | 0.0 | 0.0 | 0.00 | 0.00 | 0.00 | 62 | 1014.2 |
| 20260502121918 | 42 | 269 | 0.0 | 0.0 | 0.00 | 0.00 | 0.00 | 61 | 1014.2 |
| 20260502120916 | 42 | 269 | 0.0 | 0.0 | 0.00 | 0.00 | 0.00 | 63 | 1014.2 |
| 20260502120417 | 42 | 269 | 0.0 | 0.0 | 0.00 | 0.00 | 0.00 | 64 | 1014.2 |
| 20260502115918 | 42 | 269 | 0.0 | 0.0 | 0.00 | 0.00 | 0.00 | 64 | 1014.2 |
| 20260502115416 | 42 | 269 | 0.0 | 0.0 | 0.00 | 0.00 | 0.00 | 62 | 1014.3 |
| 20260502114918 | 43 | 269 | 0.0 | 0.0 | 0.00 | 0.00 | 0.00 | 61 | 1014.3 |
| 20260502114416 | 43 | 269 | 0.0 | 0.0 | 0.00 | 0.00 | 0.00 | 62 | 1014.3 |
| 20260502113914 | 43 | 269 | 0.0 | 0.0 | 0.00 | 0.00 | 0.00 | 63 | 1014.3 |
| 20260502113427 | 43 | 269 | 0.0 | 0.0 | 0.00 | 0.00 | 0.00 | 62 | 1014.3 |
| 20260502113416 | 43 | 269 | 0.0 | 0.0 | 0.00 | 0.00 | 0.00 | 63 | 1014.3 |
| 20260502112415 | 44 | 269 | 0.0 | 0.0 | 0.00 | 0.00 | 0.00 | 60 | 1014.2 |
| 20260502111926 | 44 | 269 | 0.0 | 0.0 | 0.00 | 0.00 | 0.00 | 58 | 1014.2 |
| 20260502111915 | 44 | 269 | 0.0 | 0.0 | 0.00 | 0.00 | 0.00 | 59 | 1014.3 |
| 20260502110916 | 44 | 269 | 0.0 | 0.0 | 0.00 | 0.00 | 0.00 | 58 | 1014.2 |
| 20260502110416 | 44 | 269 | 0.0 | 0.0 | 0.00 | 0.00 | 0.00 | 58 | 1014.2 |
| 20260502105915 | 45 | 0 | 0.0 | 0.0 | 0.00 | 0.00 | 0.00 | 57 | 1014.1 |
| 20260502105415 | 45 | 0 | 0.0 | 0.0 | 0.00 | 0.00 | 0.00 | 56 | 1014.1 |
| 20260502104916 | 45 | 0 | 0.0 | 0.0 | 0.00 | 0.00 | 0.00 | 56 | 1014.2 |
| 20260502104416 | 45 | 0 | 0.0 | 0.0 | 0.00 | 0.00 | 0.00 | 56 | 1014.3 |
| 20260502103926 | 45 | 0 | 0.0 | 0.0 | 0.00 | 0.00 | 0.00 | 56 | 1014.2 |
| 20260502103915 | 45 | 0 | 0.0 | 0.0 | 0.00 | 0.00 | 0.00 | 56 | 1014.2 |
| 20260502103543 | 45 | 0 | 0.0 | 0.0 | 0.00 | 0.00 | 0.00 | 55 | 1014.2 |
| 20260502103037 | 45 | 0 | 0.0 | 0.0 | 0.00 | 0.00 | 0.00 | 55 | 1014.2 |
| 20260502101915 | 46 | 0 | 0.0 | 0.0 | 0.00 | 0.00 | 0.00 | 55 | 1014.2 |
| 20260502101414 | 46 | 0 | 0.0 | 0.0 | 0.00 | 0.00 | 0.00 | 55 | 1014.1 |
| 20260502100915 | 46 | 0 | 0.0 | 0.0 | 0.00 | 0.00 | 0.00 | 56 | 1014.2 |
| 20260502100415 | 46 | 0 | 0.0 | 0.0 | 0.00 | 0.00 | 0.00 | 54 | 1014.2 |
| 20260502091412 | 47 | 0 | 0.0 | 0.0 | 0.00 | 0.00 | 0.00 | 51 | 1014.4 |
| 20260502090912 | 47 | 0 | 0.0 | 0.0 | 0.00 | 0.00 | 0.00 | 52 | 1014.5 |
| 20260502090413 | 47 | 0 | 0.0 | 0.0 | 0.00 | 0.00 | 0.00 | 52 | 1014.7 |
| 20260502071411 | 50 | 0 | 0.0 | 0.0 | 0.00 | 0.00 | 0.00 | 37 | 1015.4 |
| 20260502070911 | 50 | 0 | 0.0 | 0.0 | 0.00 | 0.00 | 0.00 | 37 | 1015.4 |